sensor_id;sensor_type;location;lat;lon;timestamp;pressure;altitude;pressure_sealevel;temperature;humidity
84817;BME280;75051;53.104;18.058;2024-03-22T00:02:01;101103.12;;;8.37;77.97
84817;BME280;75051;53.104;18.058;2024-03-22T00:04:28;101098.34;;;8.33;78.09
84817;BME280;75051;53.104;18.058;2024-03-22T00:06:54;101098.63;;;8.27;78.18
84817;BME280;75051;53.104;18.058;2024-03-22T00:09:21;101098.16;;;8.21;78.18
84817;BME280;75051;53.104;18.058;2024-03-22T00:11:47;101104.84;;;8.13;78.15
84817;BME280;75051;53.104;18.058;2024-03-22T00:14:14;101101.95;;;8.09;78.51
84817;BME280;75051;53.104;18.058;2024-03-22T00:16:42;101102.54;;;8.09;78.30
84817;BME280;75051;53.104;18.058;2024-03-22T00:19:08;101104.65;;;8.07;78.77
84817;BME280;75051;53.104;18.058;2024-03-22T00:21:37;101101.41;;;8.03;78.38
84817;BME280;75051;53.104;18.058;2024-03-22T00:24:04;101101.52;;;8.01;78.46
84817;BME280;75051;53.104;18.058;2024-03-22T00:26:30;101103.54;;;8.02;78.35
84817;BME280;75051;53.104;18.058;2024-03-22T00:28:57;101103.95;;;8.03;78.29
84817;BME280;75051;53.104;18.058;2024-03-22T00:31:26;101105.60;;;8.05;78.38
84817;BME280;75051;53.104;18.058;2024-03-22T00:33:53;101102.27;;;8.02;78.41
84817;BME280;75051;53.104;18.058;2024-03-22T00:36:19;101106.03;;;7.98;78.23
84817;BME280;75051;53.104;18.058;2024-03-22T00:38:46;101104.46;;;7.98;78.38
84817;BME280;75051;53.104;18.058;2024-03-22T00:41:13;101103.27;;;7.97;78.45
84817;BME280;75051;53.104;18.058;2024-03-22T00:43:40;101105.19;;;7.96;78.55
84817;BME280;75051;53.104;18.058;2024-03-22T00:46:07;101103.02;;;7.92;78.36
84817;BME280;75051;53.104;18.058;2024-03-22T00:48:34;101102.48;;;7.92;78.33
84817;BME280;75051;53.104;18.058;2024-03-22T00:51:02;101101.41;;;7.92;78.48
84817;BME280;75051;53.104;18.058;2024-03-22T00:53:30;101104.22;;;7.95;78.28
84817;BME280;75051;53.104;18.058;2024-03-22T00:55:56;101103.30;;;7.97;78.27
84817;BME280;75051;53.104;18.058;2024-03-22T00:58:28;101101.30;;;7.97;78.13
84817;BME280;75051;53.104;18.058;2024-03-22T01:00:55;101098.34;;;7.98;78.21
84817;BME280;75051;53.104;18.058;2024-03-22T01:03:22;101097.04;;;7.96;78.18
84817;BME280;75051;53.104;18.058;2024-03-22T01:05:49;101095.90;;;7.95;78.21
84817;BME280;75051;53.104;18.058;2024-03-22T01:08:16;101098.87;;;7.96;78.13
84817;BME280;75051;53.104;18.058;2024-03-22T01:10:43;101098.29;;;7.95;78.12
84817;BME280;75051;53.104;18.058;2024-03-22T01:13:09;101095.79;;;7.94;77.97
84817;BME280;75051;53.104;18.058;2024-03-22T01:15:36;101093.36;;;7.87;77.97
84817;BME280;75051;53.104;18.058;2024-03-22T01:18:03;101092.92;;;7.82;78.00
84817;BME280;75051;53.104;18.058;2024-03-22T01:20:29;101090.43;;;7.82;78.00
84817;BME280;75051;53.104;18.058;2024-03-22T01:22:56;101086.29;;;7.80;78.08
84817;BME280;75051;53.104;18.058;2024-03-22T01:25:23;101082.98;;;7.77;78.02
84817;BME280;75051;53.104;18.058;2024-03-22T01:27:49;101082.17;;;7.74;78.01
84817;BME280;75051;53.104;18.058;2024-03-22T01:30:16;101085.69;;;7.71;78.16
84817;BME280;75051;53.104;18.058;2024-03-22T01:32:42;101085.30;;;7.71;78.02
84817;BME280;75051;53.104;18.058;2024-03-22T01:35:10;101093.62;;;7.73;78.05
84817;BME280;75051;53.104;18.058;2024-03-22T01:37:36;101090.06;;;7.74;78.10
84817;BME280;75051;53.104;18.058;2024-03-22T01:40:03;101085.77;;;7.74;78.18
84817;BME280;75051;53.104;18.058;2024-03-22T01:42:33;101086.17;;;7.76;78.21
84817;BME280;75051;53.104;18.058;2024-03-22T01:45:00;101085.13;;;7.77;77.95
84817;BME280;75051;53.104;18.058;2024-03-22T01:47:26;101083.39;;;7.78;78.05
84817;BME280;75051;53.104;18.058;2024-03-22T01:49:54;101089.15;;;7.80;78.07
84817;BME280;75051;53.104;18.058;2024-03-22T01:52:22;101083.20;;;7.80;77.89
84817;BME280;75051;53.104;18.058;2024-03-22T01:54:49;101083.69;;;7.77;77.71
84817;BME280;75051;53.104;18.058;2024-03-22T01:57:16;101087.52;;;7.75;77.74
84817;BME280;75051;53.104;18.058;2024-03-22T01:59:42;101089.52;;;7.74;77.88
84817;BME280;75051;53.104;18.058;2024-03-22T02:02:10;101087.10;;;7.71;77.84
84817;BME280;75051;53.104;18.058;2024-03-22T02:04:37;101087.55;;;7.68;77.83
84817;BME280;75051;53.104;18.058;2024-03-22T02:07:04;101086.34;;;7.65;77.99
84817;BME280;75051;53.104;18.058;2024-03-22T02:09:31;101085.79;;;7.64;77.85
84817;BME280;75051;53.104;18.058;2024-03-22T02:11:57;101079.61;;;7.64;77.91
84817;BME280;75051;53.104;18.058;2024-03-22T02:14:24;101086.11;;;7.64;77.73
84817;BME280;75051;53.104;18.058;2024-03-22T02:16:51;101080.92;;;7.64;77.77
84817;BME280;75051;53.104;18.058;2024-03-22T02:19:18;101082.32;;;7.64;77.65
84817;BME280;75051;53.104;18.058;2024-03-22T02:21:45;101076.59;;;7.64;77.84
84817;BME280;75051;53.104;18.058;2024-03-22T02:24:12;101075.80;;;7.62;77.65
84817;BME280;75051;53.104;18.058;2024-03-22T02:26:39;101076.00;;;7.64;77.46
84817;BME280;75051;53.104;18.058;2024-03-22T02:29:06;101072.21;;;7.64;77.59
84817;BME280;75051;53.104;18.058;2024-03-22T02:31:32;101071.86;;;7.64;77.59
84817;BME280;75051;53.104;18.058;2024-03-22T02:33:59;101071.11;;;7.60;77.36
84817;BME280;75051;53.104;18.058;2024-03-22T02:36:26;101067.63;;;7.59;77.42
84817;BME280;75051;53.104;18.058;2024-03-22T02:38:52;101068.81;;;7.58;77.59
84817;BME280;75051;53.104;18.058;2024-03-22T02:41:20;101070.57;;;7.61;77.56
84817;BME280;75051;53.104;18.058;2024-03-22T02:43:47;101069.17;;;7.60;77.40
84817;BME280;75051;53.104;18.058;2024-03-22T02:46:14;101066.60;;;7.59;77.23
84817;BME280;75051;53.104;18.058;2024-03-22T02:48:40;101064.23;;;7.57;77.46
84817;BME280;75051;53.104;18.058;2024-03-22T02:51:07;101061.83;;;7.56;77.21
84817;BME280;75051;53.104;18.058;2024-03-22T02:53:33;101058.57;;;7.54;77.31
84817;BME280;75051;53.104;18.058;2024-03-22T02:56:00;101057.70;;;7.55;77.27
84817;BME280;75051;53.104;18.058;2024-03-22T02:58:27;101057.20;;;7.55;77.27
84817;BME280;75051;53.104;18.058;2024-03-22T03:00:53;101065.38;;;7.52;77.08
84817;BME280;75051;53.104;18.058;2024-03-22T03:03:20;101068.61;;;7.48;77.16
84817;BME280;75051;53.104;18.058;2024-03-22T03:05:47;101067.02;;;7.46;77.23
84817;BME280;75051;53.104;18.058;2024-03-22T03:08:14;101070.94;;;7.47;77.42
84817;BME280;75051;53.104;18.058;2024-03-22T03:10:40;101067.15;;;7.47;77.26
84817;BME280;75051;53.104;18.058;2024-03-22T03:13:07;101066.79;;;7.45;77.09
84817;BME280;75051;53.104;18.058;2024-03-22T03:15:34;101066.17;;;7.44;77.11
84817;BME280;75051;53.104;18.058;2024-03-22T03:18:00;101065.93;;;7.43;77.14
84817;BME280;75051;53.104;18.058;2024-03-22T03:20:27;101062.59;;;7.42;77.24
84817;BME280;75051;53.104;18.058;2024-03-22T03:22:53;101066.08;;;7.45;77.21
84817;BME280;75051;53.104;18.058;2024-03-22T03:25:20;101072.14;;;7.47;77.18
84817;BME280;75051;53.104;18.058;2024-03-22T03:27:47;101073.24;;;7.47;77.09
84817;BME280;75051;53.104;18.058;2024-03-22T03:30:13;101074.45;;;7.44;77.28
84817;BME280;75051;53.104;18.058;2024-03-22T03:32:40;101070.93;;;7.41;77.38
84817;BME280;75051;53.104;18.058;2024-03-22T03:35:07;101071.08;;;7.38;77.23
84817;BME280;75051;53.104;18.058;2024-03-22T03:37:34;101067.67;;;7.35;77.22
84817;BME280;75051;53.104;18.058;2024-03-22T03:40:00;101068.73;;;7.32;77.29
84817;BME280;75051;53.104;18.058;2024-03-22T03:42:27;101067.46;;;7.28;77.34
84817;BME280;75051;53.104;18.058;2024-03-22T03:44:54;101068.18;;;7.22;77.27
84817;BME280;75051;53.104;18.058;2024-03-22T03:47:20;101067.65;;;7.16;77.27
84817;BME280;75051;53.104;18.058;2024-03-22T03:49:47;101065.03;;;7.13;77.44
84817;BME280;75051;53.104;18.058;2024-03-22T03:52:14;101063.61;;;7.13;77.39
84817;BME280;75051;53.104;18.058;2024-03-22T03:54:40;101061.98;;;7.13;77.37
84817;BME280;75051;53.104;18.058;2024-03-22T03:57:07;101062.48;;;7.11;77.29
84817;BME280;75051;53.104;18.058;2024-03-22T03:59:34;101062.57;;;7.08;77.19
84817;BME280;75051;53.104;18.058;2024-03-22T04:02:00;101055.45;;;7.05;77.24
84817;BME280;75051;53.104;18.058;2024-03-22T04:04:27;101059.13;;;7.04;77.22
84817;BME280;75051;53.104;18.058;2024-03-22T04:06:54;101059.42;;;7.05;77.14
84817;BME280;75051;53.104;18.058;2024-03-22T04:09:22;101063.02;;;7.07;77.05
84817;BME280;75051;53.104;18.058;2024-03-22T04:11:48;101063.40;;;7.05;77.17
84817;BME280;75051;53.104;18.058;2024-03-22T04:14:15;101063.05;;;7.03;77.13
84817;BME280;75051;53.104;18.058;2024-03-22T04:16:41;101059.94;;;7.02;77.18
84817;BME280;75051;53.104;18.058;2024-03-22T04:19:08;101052.56;;;7.02;77.06
84817;BME280;75051;53.104;18.058;2024-03-22T04:21:34;101057.39;;;7.00;77.02
84817;BME280;75051;53.104;18.058;2024-03-22T04:24:01;101052.65;;;6.97;76.92
84817;BME280;75051;53.104;18.058;2024-03-22T04:26:28;101045.27;;;6.93;77.00
84817;BME280;75051;53.104;18.058;2024-03-22T04:28:54;101041.70;;;6.90;77.05
84817;BME280;75051;53.104;18.058;2024-03-22T04:31:22;101040.60;;;6.89;76.87
84817;BME280;75051;53.104;18.058;2024-03-22T04:33:48;101037.29;;;6.87;76.89
84817;BME280;75051;53.104;18.058;2024-03-22T04:36:15;101040.22;;;6.84;76.70
84817;BME280;75051;53.104;18.058;2024-03-22T04:38:42;101041.08;;;6.82;76.82
84817;BME280;75051;53.104;18.058;2024-03-22T04:41:08;101043.95;;;6.81;76.93
84817;BME280;75051;53.104;18.058;2024-03-22T04:43:35;101040.30;;;6.79;77.01
84817;BME280;75051;53.104;18.058;2024-03-22T04:46:03;101037.42;;;6.79;76.92
84817;BME280;75051;53.104;18.058;2024-03-22T04:48:29;101030.59;;;6.77;76.92
84817;BME280;75051;53.104;18.058;2024-03-22T04:50:56;101027.06;;;6.78;76.77
84817;BME280;75051;53.104;18.058;2024-03-22T04:53:23;101031.85;;;6.79;76.83
84817;BME280;75051;53.104;18.058;2024-03-22T04:55:50;101033.19;;;6.76;76.77
84817;BME280;75051;53.104;18.058;2024-03-22T04:58:18;101030.97;;;6.73;76.94
84817;BME280;75051;53.104;18.058;2024-03-22T05:00:46;101031.30;;;6.71;76.97
84817;BME280;75051;53.104;18.058;2024-03-22T05:03:13;101030.22;;;6.71;76.76
84817;BME280;75051;53.104;18.058;2024-03-22T05:05:41;101022.55;;;6.70;76.75
84817;BME280;75051;53.104;18.058;2024-03-22T05:08:08;101022.55;;;6.66;76.80
84817;BME280;75051;53.104;18.058;2024-03-22T05:10:36;101023.26;;;6.64;76.87
84817;BME280;75051;53.104;18.058;2024-03-22T05:13:02;101023.37;;;6.63;76.73
84817;BME280;75051;53.104;18.058;2024-03-22T05:15:29;101022.66;;;6.65;76.74
84817;BME280;75051;53.104;18.058;2024-03-22T05:17:57;101022.23;;;6.66;76.50
84817;BME280;75051;53.104;18.058;2024-03-22T05:20:24;101021.94;;;6.67;76.66
84817;BME280;75051;53.104;18.058;2024-03-22T05:22:51;101023.02;;;6.67;76.74
84817;BME280;75051;53.104;18.058;2024-03-22T05:25:18;101028.20;;;6.65;76.58
84817;BME280;75051;53.104;18.058;2024-03-22T05:27:45;101027.55;;;6.65;76.59
84817;BME280;75051;53.104;18.058;2024-03-22T05:30:12;101031.16;;;6.69;76.48
84817;BME280;75051;53.104;18.058;2024-03-22T05:32:42;101028.56;;;6.74;76.37
84817;BME280;75051;53.104;18.058;2024-03-22T05:35:09;101030.18;;;6.76;76.27
84817;BME280;75051;53.104;18.058;2024-03-22T05:37:35;101025.42;;;6.76;76.22
84817;BME280;75051;53.104;18.058;2024-03-22T05:40:03;101021.56;;;6.75;76.29
84817;BME280;75051;53.104;18.058;2024-03-22T05:42:31;101023.40;;;6.75;76.30
84817;BME280;75051;53.104;18.058;2024-03-22T05:44:57;101029.54;;;6.77;76.16
84817;BME280;75051;53.104;18.058;2024-03-22T05:47:24;101027.70;;;6.79;76.15
84817;BME280;75051;53.104;18.058;2024-03-22T05:49:51;101031.36;;;6.81;76.19
84817;BME280;75051;53.104;18.058;2024-03-22T05:52:20;101030.36;;;6.77;76.14
84817;BME280;75051;53.104;18.058;2024-03-22T05:54:49;101029.88;;;6.75;76.08
84817;BME280;75051;53.104;18.058;2024-03-22T05:57:16;101023.25;;;6.75;76.15
84817;BME280;75051;53.104;18.058;2024-03-22T05:59:44;101022.27;;;6.77;76.07
84817;BME280;75051;53.104;18.058;2024-03-22T06:02:10;101019.64;;;6.81;75.78
84817;BME280;75051;53.104;18.058;2024-03-22T06:04:37;101019.37;;;6.82;75.92
84817;BME280;75051;53.104;18.058;2024-03-22T06:07:04;101016.33;;;6.82;75.75
84817;BME280;75051;53.104;18.058;2024-03-22T06:09:32;101015.75;;;6.82;75.64
84817;BME280;75051;53.104;18.058;2024-03-22T06:12:25;101018.73;;;6.85;75.82
84817;BME280;75051;53.104;18.058;2024-03-22T06:14:53;101017.51;;;6.89;75.73
84817;BME280;75051;53.104;18.058;2024-03-22T06:17:30;101018.50;;;6.92;75.58
84817;BME280;75051;53.104;18.058;2024-03-22T06:19:57;101020.60;;;6.90;75.52
84817;BME280;75051;53.104;18.058;2024-03-22T06:22:24;101018.02;;;6.91;75.82
84817;BME280;75051;53.104;18.058;2024-03-22T06:24:52;101020.27;;;6.90;75.71
84817;BME280;75051;53.104;18.058;2024-03-22T06:27:19;101019.87;;;6.93;75.59
84817;BME280;75051;53.104;18.058;2024-03-22T06:29:46;101019.48;;;6.97;75.55
84817;BME280;75051;53.104;18.058;2024-03-22T06:32:12;101016.80;;;6.99;75.78
84817;BME280;75051;53.104;18.058;2024-03-22T06:34:39;101011.85;;;6.99;75.61
84817;BME280;75051;53.104;18.058;2024-03-22T06:37:07;101010.17;;;7.00;75.68
84817;BME280;75051;53.104;18.058;2024-03-22T06:39:36;101006.33;;;6.99;75.90
84817;BME280;75051;53.104;18.058;2024-03-22T06:42:03;101002.36;;;7.01;75.61
84817;BME280;75051;53.104;18.058;2024-03-22T06:44:30;101001.16;;;7.02;75.73
84817;BME280;75051;53.104;18.058;2024-03-22T06:46:58;101000.13;;;7.00;75.56
84817;BME280;75051;53.104;18.058;2024-03-22T06:49:25;100994.94;;;6.95;75.79
84817;BME280;75051;53.104;18.058;2024-03-22T06:51:52;100993.85;;;6.91;76.02
84817;BME280;75051;53.104;18.058;2024-03-22T06:54:18;100990.60;;;6.92;75.87
84817;BME280;75051;53.104;18.058;2024-03-22T06:56:45;100984.60;;;6.94;76.00
84817;BME280;75051;53.104;18.058;2024-03-22T06:59:12;100980.37;;;6.97;75.91
84817;BME280;75051;53.104;18.058;2024-03-22T07:01:38;100983.11;;;6.98;75.89
84817;BME280;75051;53.104;18.058;2024-03-22T07:04:05;100981.16;;;7.02;75.96
84817;BME280;75051;53.104;18.058;2024-03-22T07:06:31;100981.71;;;7.06;76.08
84817;BME280;75051;53.104;18.058;2024-03-22T07:08:59;100974.62;;;7.12;75.96
84817;BME280;75051;53.104;18.058;2024-03-22T07:11:26;100970.13;;;7.14;75.46
84817;BME280;75051;53.104;18.058;2024-03-22T07:13:53;100966.31;;;7.16;75.54
84817;BME280;75051;53.104;18.058;2024-03-22T07:16:19;100963.73;;;7.17;75.54
84817;BME280;75051;53.104;18.058;2024-03-22T07:18:46;100960.84;;;7.19;75.74
84817;BME280;75051;53.104;18.058;2024-03-22T07:21:14;100957.86;;;7.22;75.81
84817;BME280;75051;53.104;18.058;2024-03-22T07:23:41;100953.80;;;7.21;75.80
84817;BME280;75051;53.104;18.058;2024-03-22T07:26:08;100950.03;;;7.19;75.58
84817;BME280;75051;53.104;18.058;2024-03-22T07:28:34;100951.84;;;7.21;75.67
84817;BME280;75051;53.104;18.058;2024-03-22T07:31:01;100951.02;;;7.22;75.82
84817;BME280;75051;53.104;18.058;2024-03-22T07:33:28;100951.21;;;7.22;75.79
84817;BME280;75051;53.104;18.058;2024-03-22T07:36:02;100952.27;;;7.24;75.97
84817;BME280;75051;53.104;18.058;2024-03-22T07:38:29;100956.35;;;7.31;75.72
84817;BME280;75051;53.104;18.058;2024-03-22T07:40:56;100950.14;;;7.41;75.71
84817;BME280;75051;53.104;18.058;2024-03-22T07:43:23;100944.39;;;7.52;75.73
84817;BME280;75051;53.104;18.058;2024-03-22T07:45:50;100947.67;;;7.58;75.33
84817;BME280;75051;53.104;18.058;2024-03-22T07:48:16;100951.23;;;7.60;75.31
84817;BME280;75051;53.104;18.058;2024-03-22T07:50:44;100944.73;;;7.62;75.33
84817;BME280;75051;53.104;18.058;2024-03-22T07:53:10;100943.13;;;7.64;75.33
84817;BME280;75051;53.104;18.058;2024-03-22T07:55:37;100942.65;;;7.67;75.10
84817;BME280;75051;53.104;18.058;2024-03-22T07:58:03;100941.20;;;7.72;75.29
84817;BME280;75051;53.104;18.058;2024-03-22T08:00:32;100940.68;;;7.75;75.20
84817;BME280;75051;53.104;18.058;2024-03-22T08:02:58;100940.77;;;7.76;75.27
84817;BME280;75051;53.104;18.058;2024-03-22T08:05:25;100943.30;;;7.76;75.21
84817;BME280;75051;53.104;18.058;2024-03-22T08:07:52;100942.65;;;7.75;75.24
84817;BME280;75051;53.104;18.058;2024-03-22T08:10:18;100934.93;;;7.75;75.12
84817;BME280;75051;53.104;18.058;2024-03-22T08:12:45;100925.16;;;7.75;75.20
84817;BME280;75051;53.104;18.058;2024-03-22T08:15:12;100918.33;;;7.79;75.59
84817;BME280;75051;53.104;18.058;2024-03-22T08:17:38;100919.44;;;7.87;75.42
84817;BME280;75051;53.104;18.058;2024-03-22T08:20:06;100922.76;;;7.93;74.72
84817;BME280;75051;53.104;18.058;2024-03-22T08:22:33;100924.39;;;7.94;74.32
84817;BME280;75051;53.104;18.058;2024-03-22T08:24:59;100924.11;;;7.97;74.33
84817;BME280;75051;53.104;18.058;2024-03-22T08:27:28;100919.66;;;7.98;74.49
84817;BME280;75051;53.104;18.058;2024-03-22T08:29:55;100911.86;;;8.03;74.41
84817;BME280;75051;53.104;18.058;2024-03-22T08:32:21;100911.15;;;8.10;74.68
84817;BME280;75051;53.104;18.058;2024-03-22T08:34:48;100904.00;;;8.19;74.32
84817;BME280;75051;53.104;18.058;2024-03-22T08:37:14;100897.67;;;8.26;74.18
84817;BME280;75051;53.104;18.058;2024-03-22T08:39:41;100890.74;;;8.31;74.11
84817;BME280;75051;53.104;18.058;2024-03-22T08:42:08;100891.37;;;8.35;74.27
84817;BME280;75051;53.104;18.058;2024-03-22T08:44:35;100891.02;;;8.42;74.17
84817;BME280;75051;53.104;18.058;2024-03-22T08:47:03;100884.94;;;8.45;73.73
84817;BME280;75051;53.104;18.058;2024-03-22T08:49:30;100879.34;;;8.45;73.36
84817;BME280;75051;53.104;18.058;2024-03-22T08:51:58;100863.40;;;8.50;73.25
84817;BME280;75051;53.104;18.058;2024-03-22T08:54:25;100868.27;;;8.55;73.06
84817;BME280;75051;53.104;18.058;2024-03-22T08:56:52;100871.39;;;8.60;72.79
84817;BME280;75051;53.104;18.058;2024-03-22T08:59:19;100873.27;;;8.67;73.27
84817;BME280;75051;53.104;18.058;2024-03-22T09:01:45;100874.19;;;8.77;73.23
84817;BME280;75051;53.104;18.058;2024-03-22T09:04:13;100875.73;;;8.89;72.34
84817;BME280;75051;53.104;18.058;2024-03-22T09:06:41;100868.30;;;9.00;72.33
84817;BME280;75051;53.104;18.058;2024-03-22T09:09:08;100862.80;;;9.16;72.49
84817;BME280;75051;53.104;18.058;2024-03-22T09:11:36;100863.42;;;9.32;71.60
84817;BME280;75051;53.104;18.058;2024-03-22T09:14:05;100859.55;;;9.36;71.11
84817;BME280;75051;53.104;18.058;2024-03-22T09:16:32;100854.06;;;9.37;70.95
84817;BME280;75051;53.104;18.058;2024-03-22T09:19:21;100847.36;;;9.34;70.43
84817;BME280;75051;53.104;18.058;2024-03-22T09:21:47;100838.17;;;9.26;69.99
84817;BME280;75051;53.104;18.058;2024-03-22T09:24:14;100836.10;;;9.23;70.29
84817;BME280;75051;53.104;18.058;2024-03-22T09:26:41;100837.13;;;9.25;71.03
84817;BME280;75051;53.104;18.058;2024-03-22T09:29:08;100831.77;;;9.34;70.79
84817;BME280;75051;53.104;18.058;2024-03-22T09:31:36;100827.13;;;9.38;70.31
84817;BME280;75051;53.104;18.058;2024-03-22T09:34:03;100824.40;;;9.40;70.03
84817;BME280;75051;53.104;18.058;2024-03-22T09:36:29;100825.09;;;9.37;69.36
84817;BME280;75051;53.104;18.058;2024-03-22T09:39:02;100820.67;;;9.33;70.13
84817;BME280;75051;53.104;18.058;2024-03-22T09:41:31;100821.29;;;9.37;69.60
84817;BME280;75051;53.104;18.058;2024-03-22T09:43:59;100819.73;;;9.40;69.73
84817;BME280;75051;53.104;18.058;2024-03-22T09:46:29;100808.00;;;9.41;69.64
84817;BME280;75051;53.104;18.058;2024-03-22T09:48:58;100809.17;;;9.42;69.62
84817;BME280;75051;53.104;18.058;2024-03-22T09:51:25;100805.64;;;9.45;69.84
84817;BME280;75051;53.104;18.058;2024-03-22T09:53:53;100805.19;;;9.51;69.88
84817;BME280;75051;53.104;18.058;2024-03-22T09:56:21;100797.05;;;9.58;68.78
84817;BME280;75051;53.104;18.058;2024-03-22T09:58:48;100791.54;;;9.65;67.64
84817;BME280;75051;53.104;18.058;2024-03-22T10:01:18;100791.98;;;9.82;67.84
84817;BME280;75051;53.104;18.058;2024-03-22T10:03:54;100795.06;;;10.04;66.98
84817;BME280;75051;53.104;18.058;2024-03-22T10:06:22;100792.06;;;10.34;67.13
84817;BME280;75051;53.104;18.058;2024-03-22T10:08:49;100780.17;;;10.76;65.17
84817;BME280;75051;53.104;18.058;2024-03-22T10:11:16;100770.94;;;10.98;63.81
84817;BME280;75051;53.104;18.058;2024-03-22T10:13:42;100774.55;;;11.01;64.27
84817;BME280;75051;53.104;18.058;2024-03-22T10:16:09;100778.47;;;10.92;62.69
84817;BME280;75051;53.104;18.058;2024-03-22T10:18:36;100773.30;;;10.69;62.13
84817;BME280;75051;53.104;18.058;2024-03-22T10:21:04;100782.89;;;10.50;63.29
84817;BME280;75051;53.104;18.058;2024-03-22T10:23:31;100772.04;;;10.35;64.48
84817;BME280;75051;53.104;18.058;2024-03-22T10:25:59;100766.23;;;10.26;64.58
84817;BME280;75051;53.104;18.058;2024-03-22T10:28:26;100756.57;;;10.24;64.87
84817;BME280;75051;53.104;18.058;2024-03-22T10:30:53;100756.14;;;10.25;64.30
84817;BME280;75051;53.104;18.058;2024-03-22T10:33:21;100753.23;;;10.28;64.21
84817;BME280;75051;53.104;18.058;2024-03-22T10:35:53;100756.49;;;10.35;63.71
84817;BME280;75051;53.104;18.058;2024-03-22T10:38:20;100749.59;;;10.33;63.78
84817;BME280;75051;53.104;18.058;2024-03-22T10:40:48;100751.66;;;10.34;63.47
84817;BME280;75051;53.104;18.058;2024-03-22T10:43:16;100737.88;;;10.34;64.23
84817;BME280;75051;53.104;18.058;2024-03-22T10:45:44;100737.15;;;10.38;64.23
84817;BME280;75051;53.104;18.058;2024-03-22T10:48:12;100736.36;;;10.38;63.27
84817;BME280;75051;53.104;18.058;2024-03-22T10:50:41;100725.81;;;10.29;62.93
84817;BME280;75051;53.104;18.058;2024-03-22T10:53:23;100720.63;;;10.20;63.03
84817;BME280;75051;53.104;18.058;2024-03-22T10:55:51;100712.67;;;10.15;63.26
84817;BME280;75051;53.104;18.058;2024-03-22T10:58:24;100712.26;;;10.12;64.07
84817;BME280;75051;53.104;18.058;2024-03-22T11:00:55;100708.32;;;10.11;63.98
84817;BME280;75051;53.104;18.058;2024-03-22T11:03:24;100708.45;;;10.04;63.75
84817;BME280;75051;53.104;18.058;2024-03-22T11:05:55;100699.33;;;10.02;64.35
84817;BME280;75051;53.104;18.058;2024-03-22T11:08:26;100692.34;;;10.03;64.44
84817;BME280;75051;53.104;18.058;2024-03-22T11:10:53;100688.05;;;9.99;64.46
84817;BME280;75051;53.104;18.058;2024-03-22T11:13:20;100696.71;;;9.93;64.65
84817;BME280;75051;53.104;18.058;2024-03-22T11:15:48;100700.33;;;9.86;64.91
84817;BME280;75051;53.104;18.058;2024-03-22T11:18:15;100692.73;;;9.81;65.15
84817;BME280;75051;53.104;18.058;2024-03-22T11:20:42;100686.10;;;9.77;65.50
84817;BME280;75051;53.104;18.058;2024-03-22T11:23:09;100680.73;;;9.73;65.46
84817;BME280;75051;53.104;18.058;2024-03-22T11:25:36;100676.30;;;9.71;65.38
84817;BME280;75051;53.104;18.058;2024-03-22T11:28:03;100667.84;;;9.65;65.31
84817;BME280;75051;53.104;18.058;2024-03-22T11:30:32;100662.02;;;9.60;65.64
84817;BME280;75051;53.104;18.058;2024-03-22T11:33:01;100659.94;;;9.58;66.14
84817;BME280;75051;53.104;18.058;2024-03-22T11:35:28;100655.34;;;9.55;66.14
84817;BME280;75051;53.104;18.058;2024-03-22T11:37:54;100655.67;;;9.50;66.43
84817;BME280;75051;53.104;18.058;2024-03-22T11:40:23;100653.19;;;9.48;66.45
84817;BME280;75051;53.104;18.058;2024-03-22T11:42:51;100647.85;;;9.49;66.93
84817;BME280;75051;53.104;18.058;2024-03-22T11:45:19;100642.81;;;9.48;67.39
84817;BME280;75051;53.104;18.058;2024-03-22T11:47:47;100638.02;;;9.45;67.84
84817;BME280;75051;53.104;18.058;2024-03-22T11:50:14;100636.57;;;9.42;68.41
84817;BME280;75051;53.104;18.058;2024-03-22T11:52:43;100627.33;;;9.38;68.55
84817;BME280;75051;53.104;18.058;2024-03-22T11:55:10;100631.91;;;9.39;68.98
84817;BME280;75051;53.104;18.058;2024-03-22T11:57:37;100624.27;;;9.38;69.20
84817;BME280;75051;53.104;18.058;2024-03-22T12:00:09;100623.69;;;9.34;70.01
84817;BME280;75051;53.104;18.058;2024-03-22T12:02:36;100626.40;;;9.30;70.15
84817;BME280;75051;53.104;18.058;2024-03-22T12:05:04;100629.82;;;9.26;70.94
84817;BME280;75051;53.104;18.058;2024-03-22T12:07:31;100621.19;;;9.28;71.06
84817;BME280;75051;53.104;18.058;2024-03-22T12:09:58;100619.71;;;9.34;71.64
84817;BME280;75051;53.104;18.058;2024-03-22T12:12:25;100612.64;;;9.35;71.25
84817;BME280;75051;53.104;18.058;2024-03-22T12:14:53;100614.48;;;9.40;71.28
84817;BME280;75051;53.104;18.058;2024-03-22T12:17:19;100607.63;;;9.42;71.69
84817;BME280;75051;53.104;18.058;2024-03-22T12:19:46;100596.51;;;9.44;71.40
84817;BME280;75051;53.104;18.058;2024-03-22T12:22:13;100594.60;;;9.52;71.90
84817;BME280;75051;53.104;18.058;2024-03-22T12:24:40;100584.60;;;9.59;71.57
84817;BME280;75051;53.104;18.058;2024-03-22T12:27:06;100578.56;;;9.66;71.65
84817;BME280;75051;53.104;18.058;2024-03-22T12:29:33;100566.65;;;9.73;71.47
84817;BME280;75051;53.104;18.058;2024-03-22T12:32:01;100553.87;;;9.80;71.26
84817;BME280;75051;53.104;18.058;2024-03-22T12:34:30;100551.98;;;9.90;71.23
84817;BME280;75051;53.104;18.058;2024-03-22T12:36:59;100550.81;;;9.99;70.83
84817;BME280;75051;53.104;18.058;2024-03-22T12:39:26;100546.77;;;10.06;70.95
84817;BME280;75051;53.104;18.058;2024-03-22T12:41:53;100544.03;;;10.14;70.78
84817;BME280;75051;53.104;18.058;2024-03-22T12:44:20;100538.70;;;10.20;70.59
84817;BME280;75051;53.104;18.058;2024-03-22T12:46:47;100539.66;;;10.22;70.33
84817;BME280;75051;53.104;18.058;2024-03-22T12:49:13;100537.96;;;10.23;69.82